createdAt,value
2022-09-20T00:02:09.164Z,1.60
2022-09-20T00:04:39.371Z,1.30
2022-09-20T00:07:09.824Z,1.50
2022-09-20T00:09:41.094Z,1.60
2022-09-20T00:12:11.389Z,1.50
2022-09-20T00:14:41.680Z,1.50
2022-09-20T00:17:11.835Z,1.80
2022-09-20T00:19:42.198Z,1.70
2022-09-20T00:22:12.322Z,1.60
2022-09-20T00:24:48.185Z,1.80
2022-09-20T00:27:19.221Z,1.40
2022-09-20T00:29:49.344Z,1.30
2022-09-20T00:32:19.474Z,1.80
2022-09-20T00:35:07.389Z,1.50
2022-09-20T00:37:38.968Z,1.60
2022-09-20T00:40:13.348Z,1.30
2022-09-20T00:42:43.565Z,1.40
2022-09-20T00:45:22.273Z,1.10
2022-09-20T00:47:59.290Z,1.40
2022-09-20T00:50:37.945Z,1.60
2022-09-20T00:53:12.412Z,1.70
2022-09-20T00:55:48.605Z,1.70
2022-09-20T00:58:20.642Z,1.50
2022-09-20T01:00:52.947Z,1.80
2022-09-20T01:03:26.205Z,1.10
2022-09-20T01:05:57.408Z,1.20
2022-09-20T01:08:28.095Z,1.70
2022-09-20T01:10:58.748Z,1.50
2022-09-20T01:13:29.251Z,1.10
2022-09-20T01:16:01.165Z,1.60
2022-09-20T01:18:33.084Z,1.10
2022-09-20T01:21:04.937Z,1.20
2022-09-20T01:23:44.887Z,1.40
2022-09-20T01:26:50.754Z,1.50
2022-09-20T01:29:35.929Z,1.70
2022-09-20T01:32:14.044Z,1.30
2022-09-20T01:34:49.803Z,1.10
2022-09-20T01:37:27.602Z,1.00
2022-09-20T01:40:10.453Z,1.80
2022-09-20T01:42:46.472Z,1.30
2022-09-20T01:45:26.223Z,1.60
2022-09-20T01:48:09.042Z,1.80
2022-09-20T01:50:49.261Z,1.60
2022-09-20T01:53:41.569Z,1.70
2022-09-20T01:56:52.556Z,1.80
2022-09-20T01:59:56.341Z,1.50
2022-09-20T02:02:53.062Z,1.60
2022-09-20T02:05:44.931Z,1.80
2022-09-20T02:08:46.692Z,1.70
2022-09-20T02:11:20.025Z,1.90
2022-09-20T02:14:06.411Z,1.40
2022-09-20T02:16:55.597Z,1.40
2022-09-20T02:19:47.858Z,2.20
2022-09-20T02:22:28.216Z,1.70
2022-09-20T02:25:09.713Z,2.50
2022-09-20T02:27:49.020Z,1.30
2022-09-20T02:30:36.628Z,1.60
2022-09-20T02:33:32.812Z,2.30
2022-09-20T02:36:14.897Z,2.10
2022-09-20T02:38:59.037Z,1.70
2022-09-20T02:41:56.684Z,2.30
2022-09-20T02:47:18.232Z,1.60
2022-09-20T02:49:59.006Z,2.00
2022-09-20T02:52:37.541Z,2.30
2022-09-20T02:55:15.408Z,2.30
2022-09-20T03:00:24.650Z,2.40
2022-09-20T03:03:07.375Z,2.40
2022-09-20T03:05:48.954Z,3.30
2022-09-20T03:08:34.379Z,2.70
2022-09-20T03:11:14.611Z,2.40
2022-09-20T03:14:03.874Z,3.30
2022-09-20T03:16:52.432Z,2.90
2022-09-20T03:19:37.322Z,2.70
2022-09-20T03:22:27.843Z,3.30
2022-09-20T03:25:16.451Z,4.30
2022-09-20T03:27:56.802Z,3.00
2022-09-20T03:30:35.935Z,2.40
2022-09-20T03:33:15.802Z,2.70
2022-09-20T03:36:00.252Z,3.70
2022-09-20T03:38:52.222Z,3.20
2022-09-20T03:41:42.043Z,3.20
2022-09-20T03:44:33.319Z,3.70
2022-09-20T03:47:13.160Z,3.90
2022-09-20T03:50:00.170Z,3.80
2022-09-20T03:52:51.452Z,3.90
2022-09-20T03:55:54.130Z,4.90
2022-09-20T03:58:35.393Z,4.40
2022-09-20T04:01:22.209Z,3.70
2022-09-20T04:04:01.042Z,4.30
2022-09-20T04:06:46.228Z,4.40
2022-09-20T04:09:37.135Z,3.60
2022-09-20T04:12:16.864Z,4.20
2022-09-20T04:14:55.371Z,2.60
2022-09-20T04:17:32.560Z,4.40
2022-09-20T04:20:08.074Z,3.00
2022-09-20T04:22:40.124Z,3.40
2022-09-20T04:25:18.479Z,3.50
2022-09-20T04:27:53.381Z,3.00
2022-09-20T04:30:27.806Z,3.20
2022-09-20T04:33:04.632Z,2.80
2022-09-20T04:36:06.710Z,3.80
2022-09-20T04:38:38.362Z,3.60
2022-09-20T04:41:35.003Z,3.60
2022-09-20T04:44:42.379Z,3.00
2022-09-20T04:50:33.479Z,3.30
2022-09-20T04:53:37.285Z,3.00
2022-09-20T04:56:20.576Z,3.00
2022-09-20T04:59:08.694Z,3.40
2022-09-20T05:02:23.899Z,4.10
2022-09-20T05:05:35.709Z,5.10
2022-09-20T05:08:41.259Z,3.90
2022-09-20T05:11:47.051Z,3.60
2022-09-20T05:14:35.199Z,3.60
2022-09-20T05:17:21.527Z,4.20
2022-09-20T05:20:07.969Z,4.20
2022-09-20T05:23:03.635Z,4.10
2022-09-20T05:25:54.797Z,3.30
2022-09-20T05:28:32.425Z,3.40
2022-09-20T05:31:10.286Z,3.40
2022-09-20T05:36:24.682Z,4.60
2022-09-20T05:39:03.497Z,3.40
2022-09-20T05:41:42.148Z,3.40
2022-09-20T05:44:27.752Z,3.90
2022-09-20T05:47:08.811Z,4.10
2022-09-20T05:49:50.409Z,2.90
2022-09-20T05:52:34.357Z,3.70
2022-09-20T05:55:29.726Z,4.10
2022-09-20T05:58:17.101Z,3.70
2022-09-20T06:00:53.601Z,3.90
2022-09-20T06:03:33.405Z,4.20
2022-09-20T06:06:09.885Z,3.60
2022-09-20T06:08:57.781Z,3.60
2022-09-20T06:11:50.063Z,2.60
2022-09-20T06:14:34.548Z,3.00
2022-09-20T06:17:17.374Z,4.00
2022-09-20T06:19:52.777Z,3.30
2022-09-20T06:22:29.553Z,3.10
2022-09-20T06:25:04.495Z,3.20
2022-09-20T06:27:40.853Z,3.10
2022-09-20T06:30:18.346Z,3.60
2022-09-20T06:33:00.117Z,3.90
2022-09-20T06:35:38.719Z,4.40
2022-09-20T06:38:44.976Z,3.80
2022-09-20T06:41:28.456Z,3.70
2022-09-20T06:43:59.397Z,2.90
2022-09-20T06:46:31.311Z,3.40
2022-09-20T06:49:02.383Z,3.10
2022-09-20T06:51:39.579Z,3.10
2022-09-20T06:54:21.064Z,2.90
2022-09-20T06:56:52.349Z,4.10
2022-09-20T06:59:22.655Z,3.40
2022-09-20T07:01:52.843Z,4.80
2022-09-20T07:04:23.417Z,3.20
2022-09-20T07:06:54.212Z,3.50
2022-09-20T07:09:24.649Z,3.00
2022-09-20T07:11:56.061Z,4.20
2022-09-20T07:14:26.623Z,3.70
2022-09-20T07:16:57.001Z,3.70
2022-09-20T07:19:27.113Z,3.80
2022-09-20T07:21:57.393Z,3.30
2022-09-20T07:24:28.386Z,2.70
2022-09-20T07:27:00.789Z,3.10
2022-09-20T07:29:31.566Z,3.00
2022-09-20T07:32:02.084Z,3.30
2022-09-20T07:34:32.414Z,2.80
2022-09-20T07:37:03.816Z,3.00
2022-09-20T07:39:33.902Z,2.60
2022-09-20T07:42:06.506Z,3.50
2022-09-20T07:44:36.645Z,3.60
2022-09-20T07:47:07.337Z,2.80
2022-09-20T07:49:37.774Z,3.30
2022-09-20T07:52:10.292Z,3.70
2022-09-20T07:54:40.505Z,3.70
2022-09-20T07:57:10.681Z,3.60
2022-09-20T07:59:40.781Z,3.40
2022-09-20T08:02:15.286Z,2.60
2022-09-20T08:04:47.186Z,3.60
2022-09-20T08:07:17.299Z,3.50
2022-09-20T08:09:47.431Z,2.60
2022-09-20T08:15:12.255Z,3.20
2022-09-20T08:17:42.398Z,3.80
2022-09-20T08:20:12.766Z,2.30
2022-09-20T08:22:43.438Z,2.80
2022-09-20T08:25:13.586Z,3.60
2022-09-20T08:27:43.711Z,3.20
2022-09-20T08:30:15.009Z,2.50
2022-09-20T08:32:45.160Z,3.00
2022-09-20T08:35:15.493Z,2.60
2022-09-20T08:37:46.401Z,3.10
2022-09-20T08:40:17.885Z,2.70
2022-09-20T08:42:48.140Z,2.30
2022-09-20T08:45:33.340Z,2.80
2022-09-20T08:48:08.146Z,2.80
2022-09-20T08:50:38.870Z,2.30
2022-09-20T08:53:13.291Z,2.50
2022-09-20T08:55:44.116Z,2.40
2022-09-20T08:58:14.908Z,2.90
2022-09-20T09:00:48.106Z,2.60
2022-09-20T09:03:19.318Z,3.00
2022-09-20T09:05:52.738Z,3.10
2022-09-20T09:08:27.053Z,2.20
2022-09-20T09:11:00.111Z,3.00
2022-09-20T09:13:33.821Z,3.00
2022-09-20T09:16:07.851Z,2.50
2022-09-20T09:18:41.566Z,2.60
2022-09-20T09:21:20.260Z,3.10
2022-09-20T09:23:54.421Z,2.10
2022-09-20T09:26:26.410Z,2.70
2022-09-20T09:29:18.768Z,2.40
2022-09-20T09:31:50.383Z,2.60
2022-09-20T09:34:31.620Z,2.80
2022-09-20T09:37:01.881Z,2.90
2022-09-20T09:39:34.173Z,1.90
2022-09-20T09:42:23.002Z,2.70
2022-09-20T09:44:53.290Z,2.10
2022-09-20T09:47:29.962Z,2.10
2022-09-20T09:50:04.914Z,2.20
2022-09-20T09:52:37.798Z,2.30
2022-09-20T09:55:10.293Z,2.20
2022-09-20T09:57:53.943Z,2.30
2022-09-20T10:00:27.011Z,2.00
2022-09-20T10:03:10.529Z,1.90
2022-09-20T10:05:52.912Z,1.90
2022-09-20T10:08:35.376Z,2.20
2022-09-20T10:11:18.545Z,2.20
2022-09-20T10:14:03.160Z,1.70
2022-09-20T10:16:47.392Z,1.90
2022-09-20T10:19:27.195Z,1.40
2022-09-20T10:22:09.170Z,1.80
2022-09-20T10:24:51.580Z,1.80
2022-09-20T10:27:36.881Z,1.90
2022-09-20T10:30:13.466Z,1.40
2022-09-20T10:32:59.925Z,1.50
2022-09-20T10:35:40.696Z,1.40
2022-09-20T10:38:19.846Z,1.40
2022-09-20T10:41:24.300Z,1.50
2022-09-20T10:44:06.889Z,1.90
2022-09-20T10:46:49.105Z,1.60
2022-09-20T10:49:28.192Z,1.90
2022-09-20T10:52:23.344Z,1.50
2022-09-20T10:55:09.514Z,1.70
2022-09-20T10:58:20.910Z,1.20
2022-09-20T11:01:02.287Z,1.30
2022-09-20T11:03:49.217Z,1.40
2022-09-20T11:06:24.217Z,1.50
2022-09-20T11:08:57.527Z,1.30
2022-09-20T11:11:32.837Z,1.30
2022-09-20T11:14:07.945Z,1.20
2022-09-20T11:16:44.485Z,1.00
2022-09-20T11:19:26.558Z,1.50
2022-09-20T11:22:05.035Z,1.10
2022-09-20T11:24:39.417Z,1.10
2022-09-20T11:27:15.883Z,1.10
2022-09-20T11:29:51.522Z,1.00
2022-09-20T11:32:28.482Z,0.80
2022-09-20T11:35:04.070Z,0.60
2022-09-20T11:37:39.220Z,0.40
2022-09-20T11:40:17.983Z,0.70
2022-09-20T11:42:49.236Z,0.40
2022-09-20T11:45:23.995Z,0.40
2022-09-20T11:48:00.669Z,0.60
2022-09-20T11:50:48.692Z,0.40
2022-09-20T11:53:36.870Z,0.50
2022-09-20T11:56:15.374Z,0.80
2022-09-20T11:58:51.134Z,0.60
2022-09-20T12:01:28.689Z,0.60
2022-09-20T12:06:57.629Z,0.60
2022-09-20T12:09:31.345Z,0.70
2022-09-20T12:12:15.387Z,0.60
2022-09-20T12:14:56.849Z,0.60
2022-09-20T12:18:09.605Z,0.90
2022-09-20T12:21:05.820Z,0.60
2022-09-20T12:24:18.186Z,0.60
2022-09-20T12:26:50.965Z,0.60
2022-09-20T12:29:57.551Z,0.70
2022-09-20T12:32:57.618Z,0.70
2022-09-20T12:36:01.358Z,0.60
2022-09-20T12:38:40.475Z,0.70
2022-09-20T12:41:14.107Z,0.80
2022-09-20T12:43:58.795Z,0.90
2022-09-20T12:46:52.269Z,0.80
2022-09-20T12:49:52.802Z,1.00
2022-09-20T12:52:53.977Z,0.90
2022-09-20T12:55:45.533Z,0.90
2022-09-20T12:58:29.605Z,1.10
2022-09-20T13:01:31.085Z,0.80
2022-09-20T13:04:36.637Z,0.60
2022-09-20T13:07:44.158Z,1.00
2022-09-20T13:10:23.544Z,0.90
2022-09-20T13:12:57.264Z,1.00
2022-09-20T13:15:28.389Z,1.00
2022-09-20T13:18:02.147Z,1.00
2022-09-20T13:20:35.628Z,0.90
2022-09-20T13:23:06.645Z,1.60
2022-09-20T13:25:41.985Z,1.30
2022-09-20T13:28:27.596Z,1.10
2022-09-20T13:31:28.831Z,1.00
2022-09-20T13:34:15.509Z,1.00
2022-09-20T13:36:46.581Z,1.30
2022-09-20T13:39:29.401Z,1.20
2022-09-20T13:42:06.959Z,0.80
2022-09-20T13:44:38.658Z,0.80
2022-09-20T13:47:29.360Z,1.00
2022-09-20T13:50:19.032Z,0.90
2022-09-20T13:52:51.561Z,0.80
2022-09-20T13:55:39.791Z,0.80
2022-09-20T13:58:18.807Z,0.90
2022-09-20T14:00:51.746Z,0.80
2022-09-20T14:03:23.125Z,0.70
2022-09-20T14:05:55.776Z,0.90
2022-09-20T14:08:29.501Z,0.70
2022-09-20T14:11:14.357Z,0.70
2022-09-20T14:13:47.553Z,0.90
2022-09-20T14:16:20.274Z,0.80
2022-09-20T14:18:51.800Z,0.70
2022-09-20T14:21:25.924Z,0.70
2022-09-20T14:24:00.586Z,0.80
2022-09-20T14:26:33.552Z,1.00
2022-09-20T14:29:38.511Z,0.60
2022-09-20T14:32:15.797Z,1.40
2022-09-20T14:34:47.584Z,0.60
2022-09-20T14:37:25.659Z,0.80
2022-09-20T14:39:58.865Z,0.80
2022-09-20T14:42:34.467Z,0.90
2022-09-20T14:45:06.008Z,0.70
2022-09-20T14:47:50.769Z,0.60
2022-09-20T14:50:28.771Z,0.90
2022-09-20T14:53:24.887Z,0.80
2022-09-20T14:56:12.408Z,1.10
2022-09-20T15:01:28.717Z,0.80
2022-09-20T15:03:59.436Z,0.70
2022-09-20T15:06:30.145Z,1.10
2022-09-20T15:09:01.805Z,0.70
2022-09-20T15:11:32.541Z,0.90
2022-09-20T15:14:02.949Z,1.20
2022-09-20T15:16:34.307Z,0.90
2022-09-20T15:19:05.724Z,0.80
2022-09-20T15:21:36.286Z,1.30
2022-09-20T15:24:06.952Z,1.00
2022-09-20T15:26:37.049Z,1.10
2022-09-20T15:29:09.117Z,1.40
2022-09-20T15:31:39.214Z,0.90
2022-09-20T15:34:09.684Z,0.90
2022-09-20T15:36:40.118Z,0.90
2022-09-20T15:39:10.444Z,0.80
2022-09-20T15:41:41.978Z,0.80
2022-09-20T15:44:12.580Z,1.10
2022-09-20T15:46:42.917Z,0.80
2022-09-20T15:49:14.115Z,0.70
2022-09-20T15:51:52.789Z,0.90
2022-09-20T15:54:23.551Z,0.90
2022-09-20T15:56:54.015Z,0.80
2022-09-20T15:59:24.354Z,0.70
2022-09-20T16:01:54.504Z,1.00
2022-09-20T16:04:26.043Z,1.00
2022-09-20T16:06:56.430Z,1.40
2022-09-20T16:09:26.581Z,1.50
2022-09-20T16:11:59.274Z,1.20
2022-09-20T16:14:29.663Z,0.90
2022-09-20T16:16:59.930Z,0.80
2022-09-20T16:19:30.568Z,0.90
2022-09-20T16:22:00.753Z,1.00
2022-09-20T16:24:33.907Z,0.70
2022-09-20T16:27:06.107Z,0.60
2022-09-20T16:29:37.517Z,0.60
2022-09-20T16:32:07.683Z,0.70
2022-09-20T16:34:37.799Z,0.90
2022-09-20T16:37:11.778Z,0.60
2022-09-20T16:39:42.004Z,0.90
2022-09-20T16:42:13.401Z,0.70
2022-09-20T16:44:44.349Z,1.20
2022-09-20T16:47:21.962Z,0.80
2022-09-20T16:49:53.183Z,1.00
2022-09-20T16:52:26.384Z,0.80
2022-09-20T16:54:56.753Z,0.80
2022-09-20T16:57:27.005Z,0.70
2022-09-20T16:59:58.686Z,0.60
2022-09-20T17:02:28.798Z,0.80
2022-09-20T17:04:58.982Z,1.00
2022-09-20T17:07:29.205Z,0.60
2022-09-20T17:10:01.335Z,0.90
2022-09-20T17:12:33.998Z,0.70
2022-09-20T17:15:04.156Z,1.30
2022-09-20T17:17:34.580Z,0.80
2022-09-20T17:20:06.895Z,0.60
2022-09-20T17:22:37.020Z,0.80
2022-09-20T17:25:09.144Z,0.70
2022-09-20T17:27:39.848Z,0.90
2022-09-20T17:30:12.961Z,0.90
2022-09-20T17:32:46.259Z,0.80
2022-09-20T17:35:18.477Z,0.90
2022-09-20T17:37:48.898Z,1.00
2022-09-20T17:40:21.645Z,1.00
2022-09-20T17:42:52.691Z,0.80
2022-09-20T17:45:22.784Z,0.70
2022-09-20T17:47:55.704Z,0.70
2022-09-20T17:50:25.870Z,3.10
2022-09-20T17:52:56.353Z,1.60
2022-09-20T17:55:28.336Z,1.10
2022-09-20T17:57:58.431Z,0.90
2022-09-20T18:00:28.584Z,1.00
2022-09-20T18:03:04.062Z,1.00
2022-09-20T18:05:34.960Z,0.80
2022-09-20T18:08:05.813Z,1.10
2022-09-20T18:10:36.460Z,0.80
2022-09-20T18:13:06.997Z,0.90
2022-09-20T18:15:37.511Z,0.80
2022-09-20T18:18:08.350Z,1.20
2022-09-20T18:20:38.491Z,1.00
2022-09-20T18:23:08.638Z,1.10
2022-09-20T18:25:52.822Z,0.90
2022-09-20T18:28:22.998Z,0.80
2022-09-20T18:31:03.445Z,0.90
2022-09-20T18:33:36.819Z,0.80
2022-09-20T18:36:08.864Z,1.00
2022-09-20T18:38:40.962Z,0.90
2022-09-20T18:41:14.033Z,1.00
2022-09-20T18:43:47.805Z,1.20
2022-09-20T18:46:23.810Z,1.00
2022-09-20T18:48:55.908Z,1.30
2022-09-20T18:51:28.742Z,1.10
2022-09-20T18:53:59.850Z,1.20
2022-09-20T18:56:32.480Z,1.10
2022-09-20T18:59:06.204Z,1.20
2022-09-20T19:02:00.544Z,1.10
2022-09-20T19:04:44.360Z,1.20
2022-09-20T19:07:22.047Z,1.20
2022-09-20T19:09:58.621Z,1.10
2022-09-20T19:12:36.833Z,1.00
2022-09-20T19:15:23.625Z,1.20
2022-09-20T19:18:07.283Z,1.50
2022-09-20T19:20:47.423Z,0.90
2022-09-20T19:23:39.825Z,0.90
2022-09-20T19:26:19.000Z,1.10
2022-09-20T19:28:51.835Z,1.00
2022-09-20T19:31:28.369Z,1.10
2022-09-20T19:34:01.282Z,1.40
2022-09-20T19:36:44.493Z,1.50
2022-09-20T19:39:23.084Z,1.50
2022-09-20T19:42:07.710Z,1.80
2022-09-20T19:44:49.380Z,1.50
2022-09-20T19:47:28.973Z,1.40
2022-09-20T19:50:13.365Z,1.60
2022-09-20T19:52:45.441Z,1.70
2022-09-20T19:55:18.160Z,1.60
2022-09-20T19:57:50.180Z,1.60
2022-09-20T20:00:23.112Z,1.80
2022-09-20T20:02:55.173Z,1.80
2022-09-20T20:05:27.724Z,1.90
2022-09-20T20:08:06.976Z,1.50
2022-09-20T20:10:50.261Z,1.90
2022-09-20T20:13:46.701Z,1.50
2022-09-20T20:16:21.760Z,1.60
2022-09-20T20:19:07.494Z,1.70
2022-09-20T20:21:50.853Z,1.90
2022-09-20T20:24:29.891Z,1.90
2022-09-20T20:27:00.331Z,2.00
2022-09-20T20:29:30.724Z,2.20
2022-09-20T20:32:00.954Z,9.50
2022-09-20T20:34:31.153Z,6.50
2022-09-20T20:37:01.764Z,1.90
2022-09-20T20:39:32.770Z,1.80
2022-09-20T20:42:08.358Z,1.90
2022-09-20T20:44:38.781Z,1.80
2022-09-20T20:47:09.604Z,1.50
2022-09-20T20:49:39.819Z,1.60
2022-09-20T20:52:09.936Z,2.00
2022-09-20T20:54:40.116Z,1.60
2022-09-20T20:57:10.760Z,1.50
2022-09-20T20:59:41.180Z,1.50
2022-09-20T21:02:12.502Z,1.60
2022-09-20T21:04:42.883Z,1.60
2022-09-20T21:07:12.983Z,1.70
2022-09-20T21:09:43.321Z,1.80
2022-09-20T21:12:14.558Z,1.70
2022-09-20T21:14:45.553Z,2.00
2022-09-20T21:17:16.149Z,2.30
2022-09-20T21:19:46.281Z,2.50
2022-09-20T21:22:16.390Z,2.40
2022-09-20T21:24:47.030Z,2.30
2022-09-20T21:27:17.152Z,1.90
2022-09-20T21:29:47.290Z,2.10
2022-09-20T21:32:17.562Z,1.80
2022-09-20T21:34:47.914Z,2.10
2022-09-20T21:37:18.334Z,2.10
2022-09-20T21:39:48.621Z,1.90
2022-09-20T21:42:18.725Z,1.60
2022-09-20T21:44:48.825Z,2.00
2022-09-20T21:47:20.242Z,1.70
2022-09-20T21:49:50.558Z,2.10
2022-09-20T21:52:20.700Z,2.00
2022-09-20T21:54:51.118Z,1.80
2022-09-20T21:57:21.486Z,2.00
2022-09-20T21:59:51.650Z,2.00
2022-09-20T22:02:21.804Z,1.80
2022-09-20T22:04:52.009Z,1.90
2022-09-20T22:07:23.235Z,2.20
2022-09-20T22:09:53.408Z,1.80
2022-09-20T22:12:24.175Z,1.80
2022-09-20T22:14:54.729Z,1.80
2022-09-20T22:17:25.007Z,2.00
2022-09-20T22:19:55.167Z,1.70
2022-09-20T22:22:25.568Z,1.90
2022-09-20T22:24:55.928Z,2.30
2022-09-20T22:27:26.323Z,2.10
2022-09-20T22:30:00.352Z,2.20
2022-09-20T22:32:32.881Z,1.90
2022-09-20T22:35:02.984Z,2.00
2022-09-20T22:37:33.097Z,2.10
2022-09-20T22:40:03.919Z,1.70
2022-09-20T22:42:34.128Z,1.70
2022-09-20T22:45:04.350Z,2.00
2022-09-20T22:47:34.460Z,2.00
2022-09-20T22:50:05.630Z,1.90
2022-09-20T22:52:36.000Z,1.80
2022-09-20T22:55:07.735Z,2.00
2022-09-20T22:57:38.421Z,1.80
2022-09-20T23:00:10.949Z,2.10
2022-09-20T23:02:41.104Z,1.90
2022-09-20T23:05:12.013Z,1.70
2022-09-20T23:07:42.565Z,1.90
2022-09-20T23:10:12.950Z,2.00
2022-09-20T23:12:43.058Z,2.30
2022-09-20T23:15:13.798Z,2.40
2022-09-20T23:17:44.396Z,2.20
2022-09-20T23:20:14.700Z,2.20
2022-09-20T23:22:44.808Z,1.90
2022-09-20T23:25:14.990Z,1.80
2022-09-20T23:27:45.194Z,2.10
2022-09-20T23:30:15.975Z,2.00
2022-09-20T23:32:46.084Z,2.20
2022-09-20T23:35:16.618Z,2.00
2022-09-20T23:37:46.728Z,2.00
2022-09-20T23:40:17.455Z,1.90
2022-09-20T23:42:48.254Z,2.60
2022-09-20T23:45:18.443Z,2.20
2022-09-20T23:47:50.880Z,2.10
2022-09-20T23:50:21.041Z,2.80
2022-09-20T23:52:51.152Z,2.40
2022-09-20T23:55:21.322Z,2.70
2022-09-20T23:57:57.576Z,2.50
